sensor_id;sensor_type;location;lat;lon;timestamp;P1;durP1;ratioP1;P2;durP2;ratioP2
55007;SDS011;40902;45.116;21.296;2022-11-14T00:00:10;6.03;;;4.22;;
55007;SDS011;40902;45.116;21.296;2022-11-14T00:02:36;7.30;;;4.32;;
55007;SDS011;40902;45.116;21.296;2022-11-14T00:05:03;6.32;;;4.50;;
55007;SDS011;40902;45.116;21.296;2022-11-14T00:07:29;6.07;;;4.00;;
55007;SDS011;40902;45.116;21.296;2022-11-14T00:09:56;6.43;;;4.00;;
55007;SDS011;40902;45.116;21.296;2022-11-14T00:12:22;7.80;;;4.35;;
55007;SDS011;40902;45.116;21.296;2022-11-14T00:14:47;7.05;;;4.53;;
55007;SDS011;40902;45.116;21.296;2022-11-14T00:17:13;6.18;;;4.40;;
55007;SDS011;40902;45.116;21.296;2022-11-14T00:19:39;8.38;;;5.20;;
55007;SDS011;40902;45.116;21.296;2022-11-14T00:22:04;8.00;;;4.88;;
55007;SDS011;40902;45.116;21.296;2022-11-14T00:24:30;5.85;;;4.00;;
55007;SDS011;40902;45.116;21.296;2022-11-14T00:26:56;7.07;;;4.55;;
55007;SDS011;40902;45.116;21.296;2022-11-14T00:29:22;6.00;;;4.38;;
55007;SDS011;40902;45.116;21.296;2022-11-14T00:31:47;7.95;;;4.35;;
55007;SDS011;40902;45.116;21.296;2022-11-14T00:34:13;8.55;;;4.53;;
55007;SDS011;40902;45.116;21.296;2022-11-14T00:36:39;7.70;;;4.20;;
55007;SDS011;40902;45.116;21.296;2022-11-14T00:39:05;6.47;;;4.07;;
55007;SDS011;40902;45.116;21.296;2022-11-14T00:41:31;7.03;;;4.45;;
55007;SDS011;40902;45.116;21.296;2022-11-14T00:43:57;6.50;;;4.80;;
55007;SDS011;40902;45.116;21.296;2022-11-14T00:46:22;5.80;;;4.45;;
55007;SDS011;40902;45.116;21.296;2022-11-14T00:48:48;7.30;;;4.38;;
55007;SDS011;40902;45.116;21.296;2022-11-14T00:51:14;7.57;;;4.65;;
55007;SDS011;40902;45.116;21.296;2022-11-14T00:53:39;6.65;;;4.88;;
55007;SDS011;40902;45.116;21.296;2022-11-14T00:56:05;5.70;;;4.10;;
55007;SDS011;40902;45.116;21.296;2022-11-14T00:58:31;5.35;;;3.83;;
55007;SDS011;40902;45.116;21.296;2022-11-14T01:00:56;6.47;;;4.72;;
55007;SDS011;40902;45.116;21.296;2022-11-14T01:03:22;7.32;;;4.82;;
55007;SDS011;40902;45.116;21.296;2022-11-14T01:05:49;7.75;;;4.43;;
55007;SDS011;40902;45.116;21.296;2022-11-14T01:08:16;6.03;;;3.97;;
55007;SDS011;40902;45.116;21.296;2022-11-14T01:10:45;6.93;;;4.63;;
55007;SDS011;40902;45.116;21.296;2022-11-14T01:13:12;6.55;;;4.07;;
55007;SDS011;40902;45.116;21.296;2022-11-14T01:15:41;11.10;;;5.32;;
55007;SDS011;40902;45.116;21.296;2022-11-14T01:20:41;7.72;;;4.85;;
55007;SDS011;40902;45.116;21.296;2022-11-14T01:23:08;8.43;;;4.45;;
55007;SDS011;40902;45.116;21.296;2022-11-14T01:25:35;7.57;;;4.22;;
55007;SDS011;40902;45.116;21.296;2022-11-14T01:28:05;7.25;;;4.43;;
55007;SDS011;40902;45.116;21.296;2022-11-14T01:30:33;7.35;;;4.50;;
55007;SDS011;40902;45.116;21.296;2022-11-14T01:32:58;8.18;;;4.50;;
55007;SDS011;40902;45.116;21.296;2022-11-14T01:35:24;6.63;;;4.70;;
55007;SDS011;40902;45.116;21.296;2022-11-14T01:37:50;7.50;;;4.78;;
55007;SDS011;40902;45.116;21.296;2022-11-14T01:40:16;9.32;;;4.50;;
55007;SDS011;40902;45.116;21.296;2022-11-14T01:42:41;8.50;;;5.18;;
55007;SDS011;40902;45.116;21.296;2022-11-14T01:45:45;7.60;;;4.90;;
55007;SDS011;40902;45.116;21.296;2022-11-14T01:48:42;7.55;;;4.95;;
55007;SDS011;40902;45.116;21.296;2022-11-14T01:51:28;6.95;;;4.80;;
55007;SDS011;40902;45.116;21.296;2022-11-14T01:54:02;10.77;;;4.97;;
55007;SDS011;40902;45.116;21.296;2022-11-14T01:56:48;8.10;;;5.13;;
55007;SDS011;40902;45.116;21.296;2022-11-14T01:59:24;8.77;;;5.35;;
55007;SDS011;40902;45.116;21.296;2022-11-14T02:01:55;6.47;;;4.90;;
55007;SDS011;40902;45.116;21.296;2022-11-14T02:04:25;7.47;;;4.93;;
55007;SDS011;40902;45.116;21.296;2022-11-14T02:06:54;7.43;;;4.63;;
55007;SDS011;40902;45.116;21.296;2022-11-14T02:09:23;8.02;;;5.32;;
55007;SDS011;40902;45.116;21.296;2022-11-14T02:11:52;8.55;;;5.70;;
55007;SDS011;40902;45.116;21.296;2022-11-14T02:14:19;8.07;;;5.13;;
55007;SDS011;40902;45.116;21.296;2022-11-14T02:16:45;7.53;;;5.43;;
55007;SDS011;40902;45.116;21.296;2022-11-14T02:19:13;7.35;;;5.10;;
55007;SDS011;40902;45.116;21.296;2022-11-14T02:21:39;6.95;;;5.18;;
55007;SDS011;40902;45.116;21.296;2022-11-14T02:24:11;9.18;;;6.20;;
55007;SDS011;40902;45.116;21.296;2022-11-14T02:26:38;9.55;;;5.45;;
55007;SDS011;40902;45.116;21.296;2022-11-14T02:29:05;9.25;;;6.80;;
55007;SDS011;40902;45.116;21.296;2022-11-14T02:31:32;12.38;;;8.18;;
55007;SDS011;40902;45.116;21.296;2022-11-14T02:33:58;10.18;;;7.43;;
55007;SDS011;40902;45.116;21.296;2022-11-14T02:36:24;13.20;;;7.97;;
55007;SDS011;40902;45.116;21.296;2022-11-14T02:38:50;11.60;;;7.95;;
55007;SDS011;40902;45.116;21.296;2022-11-14T02:41:16;14.82;;;8.95;;
55007;SDS011;40902;45.116;21.296;2022-11-14T02:43:43;15.63;;;8.63;;
55007;SDS011;40902;45.116;21.296;2022-11-14T02:46:09;11.70;;;8.30;;
55007;SDS011;40902;45.116;21.296;2022-11-14T02:48:35;15.55;;;8.70;;
55007;SDS011;40902;45.116;21.296;2022-11-14T02:51:01;15.02;;;8.10;;
55007;SDS011;40902;45.116;21.296;2022-11-14T02:53:27;13.43;;;7.80;;
55007;SDS011;40902;45.116;21.296;2022-11-14T02:55:53;14.07;;;8.50;;
55007;SDS011;40902;45.116;21.296;2022-11-14T02:58:18;11.38;;;7.60;;
55007;SDS011;40902;45.116;21.296;2022-11-14T03:00:44;12.75;;;8.15;;
55007;SDS011;40902;45.116;21.296;2022-11-14T03:03:10;13.57;;;8.48;;
55007;SDS011;40902;45.116;21.296;2022-11-14T03:05:35;14.15;;;7.93;;
55007;SDS011;40902;45.116;21.296;2022-11-14T03:08:01;13.18;;;8.70;;
55007;SDS011;40902;45.116;21.296;2022-11-14T03:10:27;13.27;;;7.72;;
55007;SDS011;40902;45.116;21.296;2022-11-14T03:12:53;15.93;;;8.60;;
55007;SDS011;40902;45.116;21.296;2022-11-14T03:15:19;13.75;;;8.93;;
55007;SDS011;40902;45.116;21.296;2022-11-14T03:17:45;16.42;;;8.68;;
55007;SDS011;40902;45.116;21.296;2022-11-14T03:20:11;15.98;;;8.85;;
55007;SDS011;40902;45.116;21.296;2022-11-14T03:22:37;12.05;;;8.10;;
55007;SDS011;40902;45.116;21.296;2022-11-14T03:25:03;13.40;;;8.85;;
55007;SDS011;40902;45.116;21.296;2022-11-14T03:27:29;15.15;;;9.27;;
55007;SDS011;40902;45.116;21.296;2022-11-14T03:29:55;13.73;;;8.65;;
55007;SDS011;40902;45.116;21.296;2022-11-14T03:32:20;14.77;;;8.35;;
55007;SDS011;40902;45.116;21.296;2022-11-14T03:34:46;12.90;;;8.18;;
55007;SDS011;40902;45.116;21.296;2022-11-14T03:37:12;15.25;;;8.43;;
55007;SDS011;40902;45.116;21.296;2022-11-14T03:39:37;13.07;;;8.43;;
55007;SDS011;40902;45.116;21.296;2022-11-14T03:42:03;12.68;;;7.70;;
55007;SDS011;40902;45.116;21.296;2022-11-14T03:44:29;12.82;;;8.35;;
55007;SDS011;40902;45.116;21.296;2022-11-14T03:46:55;13.90;;;9.10;;
55007;SDS011;40902;45.116;21.296;2022-11-14T03:49:20;13.88;;;7.95;;
55007;SDS011;40902;45.116;21.296;2022-11-14T03:51:46;15.43;;;8.73;;
55007;SDS011;40902;45.116;21.296;2022-11-14T03:54:12;17.30;;;9.30;;
55007;SDS011;40902;45.116;21.296;2022-11-14T03:56:38;14.10;;;8.48;;
55007;SDS011;40902;45.116;21.296;2022-11-14T03:59:03;22.63;;;11.00;;
55007;SDS011;40902;45.116;21.296;2022-11-14T04:01:29;19.60;;;10.23;;
55007;SDS011;40902;45.116;21.296;2022-11-14T04:03:55;16.25;;;9.48;;
55007;SDS011;40902;45.116;21.296;2022-11-14T04:06:20;20.75;;;10.50;;
55007;SDS011;40902;45.116;21.296;2022-11-14T04:08:46;17.70;;;9.15;;
55007;SDS011;40902;45.116;21.296;2022-11-14T04:11:12;16.85;;;9.07;;
55007;SDS011;40902;45.116;21.296;2022-11-14T04:13:38;18.35;;;9.40;;
55007;SDS011;40902;45.116;21.296;2022-11-14T04:16:03;15.73;;;8.90;;
55007;SDS011;40902;45.116;21.296;2022-11-14T04:18:29;18.05;;;9.82;;
55007;SDS011;40902;45.116;21.296;2022-11-14T04:20:55;17.80;;;9.63;;
55007;SDS011;40902;45.116;21.296;2022-11-14T04:23:21;16.75;;;9.02;;
55007;SDS011;40902;45.116;21.296;2022-11-14T04:25:46;15.60;;;9.27;;
55007;SDS011;40902;45.116;21.296;2022-11-14T04:28:12;15.77;;;8.82;;
55007;SDS011;40902;45.116;21.296;2022-11-14T04:30:38;15.82;;;9.07;;
55007;SDS011;40902;45.116;21.296;2022-11-14T04:33:04;16.73;;;9.10;;
55007;SDS011;40902;45.116;21.296;2022-11-14T04:35:30;15.98;;;9.80;;
55007;SDS011;40902;45.116;21.296;2022-11-14T04:37:56;17.55;;;10.00;;
55007;SDS011;40902;45.116;21.296;2022-11-14T04:40:21;15.75;;;9.02;;
55007;SDS011;40902;45.116;21.296;2022-11-14T04:42:47;15.70;;;8.95;;
55007;SDS011;40902;45.116;21.296;2022-11-14T04:45:13;18.98;;;10.02;;
55007;SDS011;40902;45.116;21.296;2022-11-14T04:47:42;16.65;;;9.85;;
55007;SDS011;40902;45.116;21.296;2022-11-14T04:50:08;16.25;;;9.02;;
55007;SDS011;40902;45.116;21.296;2022-11-14T04:52:34;18.00;;;9.43;;
55007;SDS011;40902;45.116;21.296;2022-11-14T04:55:00;16.60;;;9.77;;
55007;SDS011;40902;45.116;21.296;2022-11-14T04:57:27;17.00;;;9.70;;
55007;SDS011;40902;45.116;21.296;2022-11-14T04:59:53;16.67;;;9.18;;
55007;SDS011;40902;45.116;21.296;2022-11-14T05:02:18;17.60;;;9.80;;
55007;SDS011;40902;45.116;21.296;2022-11-14T05:04:44;15.48;;;9.43;;
55007;SDS011;40902;45.116;21.296;2022-11-14T05:07:12;18.80;;;10.05;;
55007;SDS011;40902;45.116;21.296;2022-11-14T05:09:38;21.58;;;10.32;;
55007;SDS011;40902;45.116;21.296;2022-11-14T05:12:04;17.73;;;10.73;;
55007;SDS011;40902;45.116;21.296;2022-11-14T05:14:30;17.20;;;10.25;;
55007;SDS011;40902;45.116;21.296;2022-11-14T05:16:56;15.95;;;10.13;;
55007;SDS011;40902;45.116;21.296;2022-11-14T05:19:22;15.10;;;9.25;;
55007;SDS011;40902;45.116;21.296;2022-11-14T05:21:48;17.75;;;10.65;;
55007;SDS011;40902;45.116;21.296;2022-11-14T05:24:14;14.95;;;10.23;;
55007;SDS011;40902;45.116;21.296;2022-11-14T05:26:40;17.83;;;10.30;;
55007;SDS011;40902;45.116;21.296;2022-11-14T05:29:06;16.98;;;10.52;;
55007;SDS011;40902;45.116;21.296;2022-11-14T05:31:31;17.42;;;10.02;;
55007;SDS011;40902;45.116;21.296;2022-11-14T05:33:57;19.42;;;10.65;;
55007;SDS011;40902;45.116;21.296;2022-11-14T05:36:23;22.25;;;11.32;;
55007;SDS011;40902;45.116;21.296;2022-11-14T05:38:48;20.20;;;11.30;;
55007;SDS011;40902;45.116;21.296;2022-11-14T05:41:15;23.55;;;11.10;;
55007;SDS011;40902;45.116;21.296;2022-11-14T05:43:44;24.67;;;14.57;;
55007;SDS011;40902;45.116;21.296;2022-11-14T05:46:10;26.48;;;16.15;;
55007;SDS011;40902;45.116;21.296;2022-11-14T05:48:38;24.58;;;15.38;;
55007;SDS011;40902;45.116;21.296;2022-11-14T05:51:04;24.73;;;14.70;;
55007;SDS011;40902;45.116;21.296;2022-11-14T05:53:32;23.13;;;13.52;;
55007;SDS011;40902;45.116;21.296;2022-11-14T05:56:05;29.58;;;13.18;;
55007;SDS011;40902;45.116;21.296;2022-11-14T05:58:33;18.95;;;12.52;;
55007;SDS011;40902;45.116;21.296;2022-11-14T06:01:02;24.50;;;13.88;;
55007;SDS011;40902;45.116;21.296;2022-11-14T06:03:31;21.95;;;13.30;;
55007;SDS011;40902;45.116;21.296;2022-11-14T06:05:58;22.55;;;12.60;;
55007;SDS011;40902;45.116;21.296;2022-11-14T06:08:29;18.90;;;12.57;;
55007;SDS011;40902;45.116;21.296;2022-11-14T06:10:55;20.90;;;12.82;;
55007;SDS011;40902;45.116;21.296;2022-11-14T06:13:21;19.67;;;11.60;;
55007;SDS011;40902;45.116;21.296;2022-11-14T06:15:48;20.83;;;13.23;;
55007;SDS011;40902;45.116;21.296;2022-11-14T06:18:15;23.52;;;15.20;;
55007;SDS011;40902;45.116;21.296;2022-11-14T06:20:40;21.83;;;13.82;;
55007;SDS011;40902;45.116;21.296;2022-11-14T06:23:06;30.67;;;16.00;;
55007;SDS011;40902;45.116;21.296;2022-11-14T06:25:32;25.45;;;17.20;;
55007;SDS011;40902;45.116;21.296;2022-11-14T06:27:58;25.33;;;16.13;;
55007;SDS011;40902;45.116;21.296;2022-11-14T06:30:23;24.98;;;16.88;;
55007;SDS011;40902;45.116;21.296;2022-11-14T06:32:49;24.42;;;16.33;;
55007;SDS011;40902;45.116;21.296;2022-11-14T06:35:22;30.05;;;17.02;;
55007;SDS011;40902;45.116;21.296;2022-11-14T06:37:47;34.00;;;18.58;;
55007;SDS011;40902;45.116;21.296;2022-11-14T06:40:13;31.08;;;19.05;;
55007;SDS011;40902;45.116;21.296;2022-11-14T06:42:39;31.63;;;19.17;;
55007;SDS011;40902;45.116;21.296;2022-11-14T06:45:05;31.27;;;19.10;;
55007;SDS011;40902;45.116;21.296;2022-11-14T06:47:31;32.83;;;18.13;;
55007;SDS011;40902;45.116;21.296;2022-11-14T06:49:56;33.28;;;17.83;;
55007;SDS011;40902;45.116;21.296;2022-11-14T06:52:22;31.45;;;16.73;;
55007;SDS011;40902;45.116;21.296;2022-11-14T06:54:49;33.15;;;18.00;;
55007;SDS011;40902;45.116;21.296;2022-11-14T06:57:15;35.20;;;18.20;;
55007;SDS011;40902;45.116;21.296;2022-11-14T06:59:41;31.73;;;17.55;;
55007;SDS011;40902;45.116;21.296;2022-11-14T07:02:10;29.35;;;16.50;;
55007;SDS011;40902;45.116;21.296;2022-11-14T07:04:37;25.15;;;14.60;;
55007;SDS011;40902;45.116;21.296;2022-11-14T07:07:02;26.13;;;13.10;;
55007;SDS011;40902;45.116;21.296;2022-11-14T07:09:28;24.08;;;12.52;;
55007;SDS011;40902;45.116;21.296;2022-11-14T07:11:54;23.08;;;12.73;;
55007;SDS011;40902;45.116;21.296;2022-11-14T07:14:20;25.88;;;14.07;;
55007;SDS011;40902;45.116;21.296;2022-11-14T07:16:45;29.77;;;15.93;;
55007;SDS011;40902;45.116;21.296;2022-11-14T07:19:11;37.00;;;16.75;;
55007;SDS011;40902;45.116;21.296;2022-11-14T07:21:37;30.42;;;15.85;;
55007;SDS011;40902;45.116;21.296;2022-11-14T07:24:03;23.45;;;13.95;;
55007;SDS011;40902;45.116;21.296;2022-11-14T07:26:30;20.63;;;12.60;;
55007;SDS011;40902;45.116;21.296;2022-11-14T07:28:56;22.77;;;11.20;;
55007;SDS011;40902;45.116;21.296;2022-11-14T07:31:22;17.35;;;11.10;;
55007;SDS011;40902;45.116;21.296;2022-11-14T07:33:47;19.88;;;10.75;;
55007;SDS011;40902;45.116;21.296;2022-11-14T07:36:14;19.95;;;11.25;;
55007;SDS011;40902;45.116;21.296;2022-11-14T07:38:41;19.85;;;10.70;;
55007;SDS011;40902;45.116;21.296;2022-11-14T07:41:08;19.35;;;10.73;;
55007;SDS011;40902;45.116;21.296;2022-11-14T07:43:35;15.77;;;9.80;;
55007;SDS011;40902;45.116;21.296;2022-11-14T07:46:02;15.48;;;9.07;;
55007;SDS011;40902;45.116;21.296;2022-11-14T07:48:33;20.75;;;10.50;;
55007;SDS011;40902;45.116;21.296;2022-11-14T07:50:59;23.38;;;11.80;;
55007;SDS011;40902;45.116;21.296;2022-11-14T07:53:26;20.30;;;11.05;;
55007;SDS011;40902;45.116;21.296;2022-11-14T07:55:52;19.60;;;10.88;;
55007;SDS011;40902;45.116;21.296;2022-11-14T07:58:18;16.45;;;9.27;;
55007;SDS011;40902;45.116;21.296;2022-11-14T08:00:44;15.90;;;9.25;;
55007;SDS011;40902;45.116;21.296;2022-11-14T08:03:09;12.32;;;7.63;;
55007;SDS011;40902;45.116;21.296;2022-11-14T08:05:35;12.57;;;8.05;;
55007;SDS011;40902;45.116;21.296;2022-11-14T08:08:01;13.02;;;8.07;;
55007;SDS011;40902;45.116;21.296;2022-11-14T08:10:28;15.77;;;7.93;;
55007;SDS011;40902;45.116;21.296;2022-11-14T08:13:01;13.43;;;6.90;;
55007;SDS011;40902;45.116;21.296;2022-11-14T08:15:28;10.88;;;6.93;;
55007;SDS011;40902;45.116;21.296;2022-11-14T08:17:58;10.95;;;6.75;;
55007;SDS011;40902;45.116;21.296;2022-11-14T08:20:25;11.20;;;7.53;;
55007;SDS011;40902;45.116;21.296;2022-11-14T08:22:52;10.00;;;6.95;;
55007;SDS011;40902;45.116;21.296;2022-11-14T08:25:18;9.77;;;6.80;;
55007;SDS011;40902;45.116;21.296;2022-11-14T08:27:44;11.52;;;7.75;;
55007;SDS011;40902;45.116;21.296;2022-11-14T08:30:10;14.88;;;8.10;;
55007;SDS011;40902;45.116;21.296;2022-11-14T08:32:36;10.60;;;6.95;;
55007;SDS011;40902;45.116;21.296;2022-11-14T08:35:02;9.80;;;7.38;;
55007;SDS011;40902;45.116;21.296;2022-11-14T08:37:27;12.77;;;6.80;;
55007;SDS011;40902;45.116;21.296;2022-11-14T08:39:53;10.80;;;7.40;;
55007;SDS011;40902;45.116;21.296;2022-11-14T08:42:19;9.45;;;6.90;;
55007;SDS011;40902;45.116;21.296;2022-11-14T08:44:45;12.50;;;7.57;;
55007;SDS011;40902;45.116;21.296;2022-11-14T08:47:10;11.57;;;6.75;;
55007;SDS011;40902;45.116;21.296;2022-11-14T08:49:36;16.73;;;7.07;;
55007;SDS011;40902;45.116;21.296;2022-11-14T08:52:02;14.13;;;7.10;;
55007;SDS011;40902;45.116;21.296;2022-11-14T08:54:28;9.45;;;7.07;;
55007;SDS011;40902;45.116;21.296;2022-11-14T08:56:53;9.13;;;6.32;;
55007;SDS011;40902;45.116;21.296;2022-11-14T08:59:19;9.10;;;6.45;;
55007;SDS011;40902;45.116;21.296;2022-11-14T09:01:45;10.55;;;7.70;;
55007;SDS011;40902;45.116;21.296;2022-11-14T09:04:10;11.48;;;6.95;;
55007;SDS011;40902;45.116;21.296;2022-11-14T09:06:36;10.15;;;6.80;;
55007;SDS011;40902;45.116;21.296;2022-11-14T09:09:02;10.95;;;7.63;;
55007;SDS011;40902;45.116;21.296;2022-11-14T09:11:28;9.57;;;6.40;;
55007;SDS011;40902;45.116;21.296;2022-11-14T09:13:53;9.25;;;6.55;;
55007;SDS011;40902;45.116;21.296;2022-11-14T09:16:19;10.40;;;6.82;;
55007;SDS011;40902;45.116;21.296;2022-11-14T09:18:45;11.35;;;6.72;;
55007;SDS011;40902;45.116;21.296;2022-11-14T09:21:10;10.63;;;7.00;;
55007;SDS011;40902;45.116;21.296;2022-11-14T09:23:36;11.45;;;6.97;;
55007;SDS011;40902;45.116;21.296;2022-11-14T09:26:06;10.95;;;7.15;;
55007;SDS011;40902;45.116;21.296;2022-11-14T09:28:33;12.77;;;7.53;;
55007;SDS011;40902;45.116;21.296;2022-11-14T09:31:02;12.15;;;7.35;;
55007;SDS011;40902;45.116;21.296;2022-11-14T09:33:31;11.60;;;6.75;;
55007;SDS011;40902;45.116;21.296;2022-11-14T09:35:57;9.55;;;6.82;;
55007;SDS011;40902;45.116;21.296;2022-11-14T09:38:24;10.00;;;6.70;;
55007;SDS011;40902;45.116;21.296;2022-11-14T09:40:58;10.57;;;6.95;;
55007;SDS011;40902;45.116;21.296;2022-11-14T09:48:50;12.82;;;7.78;;
55007;SDS011;40902;45.116;21.296;2022-11-14T09:51:38;9.30;;;6.55;;
55007;SDS011;40902;45.116;21.296;2022-11-14T09:56:46;10.10;;;7.22;;
55007;SDS011;40902;45.116;21.296;2022-11-14T09:59:12;9.82;;;7.07;;
55007;SDS011;40902;45.116;21.296;2022-11-14T10:05:15;11.43;;;7.03;;
55007;SDS011;40902;45.116;21.296;2022-11-14T10:10:42;9.52;;;6.30;;
55007;SDS011;40902;45.116;21.296;2022-11-14T10:22:10;10.90;;;6.88;;
55007;SDS011;40902;45.116;21.296;2022-11-14T10:27:39;8.38;;;6.55;;
55007;SDS011;40902;45.116;21.296;2022-11-14T10:30:16;9.25;;;6.38;;
55007;SDS011;40902;45.116;21.296;2022-11-14T10:45:43;9.23;;;6.57;;
55007;SDS011;40902;45.116;21.296;2022-11-14T10:48:30;9.55;;;6.68;;
55007;SDS011;40902;45.116;21.296;2022-11-14T10:51:04;9.93;;;6.50;;
55007;SDS011;40902;45.116;21.296;2022-11-14T10:53:42;9.30;;;6.82;;
55007;SDS011;40902;45.116;21.296;2022-11-14T10:58:39;9.57;;;6.55;;
55007;SDS011;40902;45.116;21.296;2022-11-14T11:03:56;9.18;;;6.95;;
55007;SDS011;40902;45.116;21.296;2022-11-14T11:06:25;9.07;;;6.90;;
55007;SDS011;40902;45.116;21.296;2022-11-14T11:08:52;8.68;;;6.38;;
55007;SDS011;40902;45.116;21.296;2022-11-14T11:11:37;12.38;;;7.63;;
55007;SDS011;40902;45.116;21.296;2022-11-14T11:14:08;11.80;;;7.90;;
55007;SDS011;40902;45.116;21.296;2022-11-14T11:16:41;9.27;;;6.70;;
55007;SDS011;40902;45.116;21.296;2022-11-14T11:19:14;9.65;;;6.55;;
55007;SDS011;40902;45.116;21.296;2022-11-14T11:21:51;13.18;;;8.18;;
55007;SDS011;40902;45.116;21.296;2022-11-14T11:24:30;11.00;;;7.40;;
55007;SDS011;40902;45.116;21.296;2022-11-14T11:29:38;10.05;;;7.28;;
55007;SDS011;40902;45.116;21.296;2022-11-14T11:32:04;11.88;;;7.55;;
55007;SDS011;40902;45.116;21.296;2022-11-14T11:34:32;10.00;;;6.45;;
55007;SDS011;40902;45.116;21.296;2022-11-14T11:39:47;12.65;;;7.47;;
55007;SDS011;40902;45.116;21.296;2022-11-14T11:45:13;10.70;;;7.55;;
55007;SDS011;40902;45.116;21.296;2022-11-14T11:47:44;11.05;;;7.72;;
55007;SDS011;40902;45.116;21.296;2022-11-14T11:50:31;12.25;;;7.85;;
55007;SDS011;40902;45.116;21.296;2022-11-14T11:56:00;12.38;;;7.43;;
55007;SDS011;40902;45.116;21.296;2022-11-14T11:58:45;10.88;;;7.47;;
55007;SDS011;40902;45.116;21.296;2022-11-14T12:01:15;10.75;;;8.13;;
55007;SDS011;40902;45.116;21.296;2022-11-14T12:03:46;9.65;;;7.53;;
55007;SDS011;40902;45.116;21.296;2022-11-14T12:08:52;10.45;;;7.13;;
55007;SDS011;40902;45.116;21.296;2022-11-14T12:11:26;10.13;;;7.50;;
55007;SDS011;40902;45.116;21.296;2022-11-14T12:16:22;10.57;;;6.80;;
55007;SDS011;40902;45.116;21.296;2022-11-14T12:18:57;9.60;;;7.13;;
55007;SDS011;40902;45.116;21.296;2022-11-14T12:24:51;10.27;;;7.27;;
55007;SDS011;40902;45.116;21.296;2022-11-14T12:30:22;13.20;;;8.50;;
55007;SDS011;40902;45.116;21.296;2022-11-14T12:35:23;11.70;;;8.18;;
55007;SDS011;40902;45.116;21.296;2022-11-14T12:37:58;13.63;;;8.90;;
55007;SDS011;40902;45.116;21.296;2022-11-14T12:40:36;11.38;;;8.30;;
55007;SDS011;40902;45.116;21.296;2022-11-14T12:43:05;13.15;;;8.13;;
55007;SDS011;40902;45.116;21.296;2022-11-14T12:45:57;14.20;;;8.43;;
55007;SDS011;40902;45.116;21.296;2022-11-14T12:50:53;12.75;;;7.90;;
55007;SDS011;40902;45.116;21.296;2022-11-14T13:01:44;12.55;;;8.82;;
55007;SDS011;40902;45.116;21.296;2022-11-14T13:09:53;13.35;;;8.65;;
55007;SDS011;40902;45.116;21.296;2022-11-14T13:12:41;13.95;;;8.35;;
55007;SDS011;40902;45.116;21.296;2022-11-14T13:15:46;12.20;;;8.55;;
55007;SDS011;40902;45.116;21.296;2022-11-14T13:18:33;11.23;;;8.02;;
55007;SDS011;40902;45.116;21.296;2022-11-14T13:21:25;11.63;;;7.75;;
55007;SDS011;40902;45.116;21.296;2022-11-14T13:24:10;12.20;;;9.05;;
55007;SDS011;40902;45.116;21.296;2022-11-14T13:32:00;12.15;;;8.63;;
55007;SDS011;40902;45.116;21.296;2022-11-14T13:34:36;10.43;;;7.78;;
55007;SDS011;40902;45.116;21.296;2022-11-14T13:40:10;12.70;;;8.57;;
55007;SDS011;40902;45.116;21.296;2022-11-14T13:42:58;13.43;;;9.50;;
55007;SDS011;40902;45.116;21.296;2022-11-14T13:50:54;10.73;;;8.30;;
55007;SDS011;40902;45.116;21.296;2022-11-14T13:53:26;12.10;;;8.10;;
55007;SDS011;40902;45.116;21.296;2022-11-14T14:03:50;12.70;;;8.90;;
55007;SDS011;40902;45.116;21.296;2022-11-14T14:09:20;13.45;;;8.82;;
55007;SDS011;40902;45.116;21.296;2022-11-14T14:12:02;10.70;;;8.02;;
55007;SDS011;40902;45.116;21.296;2022-11-14T14:20:18;12.48;;;8.65;;
55007;SDS011;40902;45.116;21.296;2022-11-14T14:22:49;11.93;;;8.43;;
55007;SDS011;40902;45.116;21.296;2022-11-14T14:25:35;13.43;;;9.73;;
55007;SDS011;40902;45.116;21.296;2022-11-14T14:31:36;12.82;;;9.55;;
55007;SDS011;40902;45.116;21.296;2022-11-14T14:34:19;20.25;;;14.13;;
55007;SDS011;40902;45.116;21.296;2022-11-14T14:36:51;16.80;;;12.52;;
55007;SDS011;40902;45.116;21.296;2022-11-14T14:39:22;16.00;;;12.05;;
55007;SDS011;40902;45.116;21.296;2022-11-14T14:41:50;15.35;;;10.93;;
55007;SDS011;40902;45.116;21.296;2022-11-14T14:44:20;15.05;;;10.27;;
55007;SDS011;40902;45.116;21.296;2022-11-14T14:46:50;15.38;;;11.30;;
55007;SDS011;40902;45.116;21.296;2022-11-14T14:49:17;15.63;;;10.15;;
55007;SDS011;40902;45.116;21.296;2022-11-14T14:51:46;16.90;;;10.68;;
55007;SDS011;40902;45.116;21.296;2022-11-14T14:54:19;15.45;;;10.55;;
55007;SDS011;40902;45.116;21.296;2022-11-14T14:56:51;17.13;;;11.77;;
55007;SDS011;40902;45.116;21.296;2022-11-14T14:59:20;25.02;;;15.95;;
55007;SDS011;40902;45.116;21.296;2022-11-14T15:01:48;25.20;;;17.45;;
55007;SDS011;40902;45.116;21.296;2022-11-14T15:04:14;28.23;;;19.27;;
55007;SDS011;40902;45.116;21.296;2022-11-14T15:06:43;27.95;;;21.92;;
55007;SDS011;40902;45.116;21.296;2022-11-14T15:09:17;26.73;;;19.65;;
55007;SDS011;40902;45.116;21.296;2022-11-14T15:11:46;24.25;;;18.00;;
55007;SDS011;40902;45.116;21.296;2022-11-14T15:14:21;21.83;;;14.82;;
55007;SDS011;40902;45.116;21.296;2022-11-14T15:16:55;20.40;;;14.40;;
55007;SDS011;40902;45.116;21.296;2022-11-14T15:19:23;20.67;;;13.73;;
55007;SDS011;40902;45.116;21.296;2022-11-14T15:22:04;24.17;;;15.13;;
55007;SDS011;40902;45.116;21.296;2022-11-14T15:27:52;24.27;;;17.10;;
55007;SDS011;40902;45.116;21.296;2022-11-14T15:30:29;23.70;;;17.05;;
55007;SDS011;40902;45.116;21.296;2022-11-14T15:32:59;24.50;;;16.35;;
55007;SDS011;40902;45.116;21.296;2022-11-14T15:35:34;26.00;;;16.70;;
55007;SDS011;40902;45.116;21.296;2022-11-14T15:40:37;24.42;;;16.65;;
55007;SDS011;40902;45.116;21.296;2022-11-14T15:51:57;24.70;;;15.55;;
55007;SDS011;40902;45.116;21.296;2022-11-14T15:56:57;23.35;;;15.10;;
55007;SDS011;40902;45.116;21.296;2022-11-14T15:59:25;24.90;;;16.00;;
55007;SDS011;40902;45.116;21.296;2022-11-14T16:01:53;25.55;;;17.30;;
55007;SDS011;40902;45.116;21.296;2022-11-14T16:04:35;26.98;;;17.90;;
55007;SDS011;40902;45.116;21.296;2022-11-14T16:07:01;28.70;;;18.95;;
55007;SDS011;40902;45.116;21.296;2022-11-14T16:09:27;31.27;;;20.00;;
55007;SDS011;40902;45.116;21.296;2022-11-14T16:11:53;27.98;;;18.02;;
55007;SDS011;40902;45.116;21.296;2022-11-14T16:14:19;21.10;;;14.88;;
55007;SDS011;40902;45.116;21.296;2022-11-14T16:16:44;24.63;;;16.33;;
55007;SDS011;40902;45.116;21.296;2022-11-14T16:19:14;26.45;;;15.43;;
55007;SDS011;40902;45.116;21.296;2022-11-14T16:21:40;27.08;;;16.55;;
55007;SDS011;40902;45.116;21.296;2022-11-14T16:24:10;25.58;;;15.50;;
55007;SDS011;40902;45.116;21.296;2022-11-14T16:26:42;23.85;;;14.95;;
55007;SDS011;40902;45.116;21.296;2022-11-14T16:29:08;21.65;;;14.35;;
55007;SDS011;40902;45.116;21.296;2022-11-14T16:31:34;19.45;;;12.77;;
55007;SDS011;40902;45.116;21.296;2022-11-14T16:34:00;19.70;;;12.93;;
55007;SDS011;40902;45.116;21.296;2022-11-14T16:36:26;18.02;;;12.35;;
55007;SDS011;40902;45.116;21.296;2022-11-14T16:38:54;21.00;;;11.43;;
55007;SDS011;40902;45.116;21.296;2022-11-14T16:41:24;13.93;;;10.15;;
55007;SDS011;40902;45.116;21.296;2022-11-14T16:43:52;17.52;;;11.63;;
55007;SDS011;40902;45.116;21.296;2022-11-14T16:46:19;17.02;;;10.85;;
55007;SDS011;40902;45.116;21.296;2022-11-14T16:48:45;17.77;;;10.55;;